sensor_id;sensor_type;location;lat;lon;timestamp;P1;durP1;ratioP1;P2;durP2;ratioP2
66179;SDS011;52986;44.028;20.466;2023-04-19T00:00:38;38.08;;;18.92;;
66179;SDS011;52986;44.028;20.466;2023-04-19T00:03:07;33.88;;;16.55;;
66179;SDS011;52986;44.028;20.466;2023-04-19T00:05:33;36.50;;;16.35;;
66179;SDS011;52986;44.028;20.466;2023-04-19T00:07:59;31.08;;;15.45;;
66179;SDS011;52986;44.028;20.466;2023-04-19T00:10:25;32.15;;;15.82;;
66179;SDS011;52986;44.028;20.466;2023-04-19T00:12:51;35.00;;;15.70;;
66179;SDS011;52986;44.028;20.466;2023-04-19T00:15:16;26.92;;;13.10;;
66179;SDS011;52986;44.028;20.466;2023-04-19T00:17:42;27.55;;;12.13;;
66179;SDS011;52986;44.028;20.466;2023-04-19T00:20:08;24.92;;;11.45;;
66179;SDS011;52986;44.028;20.466;2023-04-19T00:22:34;21.08;;;9.70;;
66179;SDS011;52986;44.028;20.466;2023-04-19T00:25:00;19.73;;;9.20;;
66179;SDS011;52986;44.028;20.466;2023-04-19T00:27:26;24.35;;;10.98;;
66179;SDS011;52986;44.028;20.466;2023-04-19T00:29:51;22.67;;;10.20;;
66179;SDS011;52986;44.028;20.466;2023-04-19T00:32:16;20.25;;;9.13;;
66179;SDS011;52986;44.028;20.466;2023-04-19T00:34:42;21.23;;;9.40;;
66179;SDS011;52986;44.028;20.466;2023-04-19T00:37:07;19.65;;;9.45;;
66179;SDS011;52986;44.028;20.466;2023-04-19T00:39:33;18.25;;;8.18;;
66179;SDS011;52986;44.028;20.466;2023-04-19T00:41:59;18.27;;;8.43;;
66179;SDS011;52986;44.028;20.466;2023-04-19T00:44:25;17.70;;;7.82;;
66179;SDS011;52986;44.028;20.466;2023-04-19T00:46:50;16.17;;;7.35;;
66179;SDS011;52986;44.028;20.466;2023-04-19T00:49:17;18.42;;;8.43;;
66179;SDS011;52986;44.028;20.466;2023-04-19T00:51:43;18.38;;;7.93;;
66179;SDS011;52986;44.028;20.466;2023-04-19T00:54:08;17.83;;;7.93;;
66179;SDS011;52986;44.028;20.466;2023-04-19T00:56:34;18.60;;;8.40;;
66179;SDS011;52986;44.028;20.466;2023-04-19T00:59:00;16.90;;;7.68;;
66179;SDS011;52986;44.028;20.466;2023-04-19T01:01:26;18.77;;;8.43;;
66179;SDS011;52986;44.028;20.466;2023-04-19T01:03:53;19.73;;;7.88;;
66179;SDS011;52986;44.028;20.466;2023-04-19T01:06:18;18.92;;;8.85;;
66179;SDS011;52986;44.028;20.466;2023-04-19T01:08:44;21.48;;;8.95;;
66179;SDS011;52986;44.028;20.466;2023-04-19T01:11:10;18.13;;;8.02;;
66179;SDS011;52986;44.028;20.466;2023-04-19T01:13:35;18.05;;;7.82;;
66179;SDS011;52986;44.028;20.466;2023-04-19T01:16:01;16.17;;;7.20;;
66179;SDS011;52986;44.028;20.466;2023-04-19T01:18:26;17.48;;;7.65;;
66179;SDS011;52986;44.028;20.466;2023-04-19T01:20:57;18.38;;;8.07;;
66179;SDS011;52986;44.028;20.466;2023-04-19T01:23:22;17.48;;;7.88;;
66179;SDS011;52986;44.028;20.466;2023-04-19T01:25:48;17.35;;;7.18;;
66179;SDS011;52986;44.028;20.466;2023-04-19T01:28:14;18.02;;;7.18;;
66179;SDS011;52986;44.028;20.466;2023-04-19T01:30:40;20.88;;;8.88;;
66179;SDS011;52986;44.028;20.466;2023-04-19T01:33:05;20.33;;;7.97;;
66179;SDS011;52986;44.028;20.466;2023-04-19T01:35:30;17.92;;;7.43;;
66179;SDS011;52986;44.028;20.466;2023-04-19T01:37:56;15.77;;;6.72;;
66179;SDS011;52986;44.028;20.466;2023-04-19T01:40:22;16.10;;;7.05;;
66179;SDS011;52986;44.028;20.466;2023-04-19T01:42:49;15.50;;;7.07;;
66179;SDS011;52986;44.028;20.466;2023-04-19T01:45:14;18.27;;;7.18;;
66179;SDS011;52986;44.028;20.466;2023-04-19T01:47:39;15.23;;;7.00;;
66179;SDS011;52986;44.028;20.466;2023-04-19T01:50:05;15.75;;;6.72;;
66179;SDS011;52986;44.028;20.466;2023-04-19T01:52:31;13.80;;;6.22;;
66179;SDS011;52986;44.028;20.466;2023-04-19T01:54:56;14.40;;;6.40;;
66179;SDS011;52986;44.028;20.466;2023-04-19T01:57:22;13.05;;;6.03;;
66179;SDS011;52986;44.028;20.466;2023-04-19T01:59:47;14.02;;;6.03;;
66179;SDS011;52986;44.028;20.466;2023-04-19T02:02:12;13.88;;;6.10;;
66179;SDS011;52986;44.028;20.466;2023-04-19T02:04:38;13.35;;;6.25;;
66179;SDS011;52986;44.028;20.466;2023-04-19T02:07:03;15.50;;;6.82;;
66179;SDS011;52986;44.028;20.466;2023-04-19T02:09:28;15.60;;;7.03;;
66179;SDS011;52986;44.028;20.466;2023-04-19T02:11:54;16.42;;;7.05;;
66179;SDS011;52986;44.028;20.466;2023-04-19T02:14:19;15.20;;;6.23;;
66179;SDS011;52986;44.028;20.466;2023-04-19T02:16:44;15.32;;;6.22;;
66179;SDS011;52986;44.028;20.466;2023-04-19T02:19:10;14.98;;;6.07;;
66179;SDS011;52986;44.028;20.466;2023-04-19T02:21:35;14.15;;;6.35;;
66179;SDS011;52986;44.028;20.466;2023-04-19T02:24:01;14.88;;;6.45;;
66179;SDS011;52986;44.028;20.466;2023-04-19T02:26:26;15.55;;;7.18;;
66179;SDS011;52986;44.028;20.466;2023-04-19T02:28:52;16.60;;;7.18;;
66179;SDS011;52986;44.028;20.466;2023-04-19T02:31:17;15.45;;;6.65;;
66179;SDS011;52986;44.028;20.466;2023-04-19T02:33:42;15.48;;;6.22;;
66179;SDS011;52986;44.028;20.466;2023-04-19T02:36:08;14.15;;;6.13;;
66179;SDS011;52986;44.028;20.466;2023-04-19T02:38:33;13.70;;;5.75;;
66179;SDS011;52986;44.028;20.466;2023-04-19T02:40:59;15.10;;;6.55;;
66179;SDS011;52986;44.028;20.466;2023-04-19T02:43:25;14.27;;;6.45;;
66179;SDS011;52986;44.028;20.466;2023-04-19T02:45:51;15.85;;;6.60;;
66179;SDS011;52986;44.028;20.466;2023-04-19T02:48:16;16.98;;;6.43;;
66179;SDS011;52986;44.028;20.466;2023-04-19T02:50:42;16.02;;;6.53;;
66179;SDS011;52986;44.028;20.466;2023-04-19T02:53:07;15.50;;;7.57;;
66179;SDS011;52986;44.028;20.466;2023-04-19T02:55:32;20.67;;;8.30;;
66179;SDS011;52986;44.028;20.466;2023-04-19T02:57:58;20.58;;;8.77;;
66179;SDS011;52986;44.028;20.466;2023-04-19T03:00:23;19.63;;;9.05;;
66179;SDS011;52986;44.028;20.466;2023-04-19T03:02:49;14.90;;;6.95;;
66179;SDS011;52986;44.028;20.466;2023-04-19T03:05:14;16.15;;;6.97;;
66179;SDS011;52986;44.028;20.466;2023-04-19T03:07:40;17.95;;;7.57;;
66179;SDS011;52986;44.028;20.466;2023-04-19T03:10:05;17.40;;;7.78;;
66179;SDS011;52986;44.028;20.466;2023-04-19T03:12:31;18.73;;;7.60;;
66179;SDS011;52986;44.028;20.466;2023-04-19T03:14:57;18.10;;;7.53;;
66179;SDS011;52986;44.028;20.466;2023-04-19T03:17:22;20.05;;;8.60;;
66179;SDS011;52986;44.028;20.466;2023-04-19T03:19:47;22.83;;;9.80;;
66179;SDS011;52986;44.028;20.466;2023-04-19T03:22:13;21.83;;;9.63;;
66179;SDS011;52986;44.028;20.466;2023-04-19T03:24:38;21.02;;;9.40;;
66179;SDS011;52986;44.028;20.466;2023-04-19T03:27:03;22.75;;;7.57;;
66179;SDS011;52986;44.028;20.466;2023-04-19T03:29:29;18.98;;;7.70;;
66179;SDS011;52986;44.028;20.466;2023-04-19T03:31:54;17.15;;;6.78;;
66179;SDS011;52986;44.028;20.466;2023-04-19T03:34:20;15.60;;;6.78;;
66179;SDS011;52986;44.028;20.466;2023-04-19T03:36:45;18.85;;;7.05;;
66179;SDS011;52986;44.028;20.466;2023-04-19T03:39:11;16.58;;;6.93;;
66179;SDS011;52986;44.028;20.466;2023-04-19T03:41:36;17.80;;;7.00;;
66179;SDS011;52986;44.028;20.466;2023-04-19T03:44:01;17.02;;;7.13;;
66179;SDS011;52986;44.028;20.466;2023-04-19T03:46:27;20.23;;;7.75;;
66179;SDS011;52986;44.028;20.466;2023-04-19T03:48:55;18.83;;;7.32;;
66179;SDS011;52986;44.028;20.466;2023-04-19T03:51:21;17.92;;;7.85;;
66179;SDS011;52986;44.028;20.466;2023-04-19T03:53:46;18.17;;;8.18;;
66179;SDS011;52986;44.028;20.466;2023-04-19T03:56:12;20.00;;;7.68;;
66179;SDS011;52986;44.028;20.466;2023-04-19T03:58:37;22.25;;;8.65;;
66179;SDS011;52986;44.028;20.466;2023-04-19T04:01:02;17.52;;;7.88;;
66179;SDS011;52986;44.028;20.466;2023-04-19T04:03:28;18.90;;;8.15;;
66179;SDS011;52986;44.028;20.466;2023-04-19T04:05:53;16.80;;;7.88;;
66179;SDS011;52986;44.028;20.466;2023-04-19T04:08:19;17.17;;;7.20;;
66179;SDS011;52986;44.028;20.466;2023-04-19T04:10:44;19.67;;;8.18;;
66179;SDS011;52986;44.028;20.466;2023-04-19T04:13:09;20.35;;;8.07;;
66179;SDS011;52986;44.028;20.466;2023-04-19T04:15:35;23.42;;;9.40;;
66179;SDS011;52986;44.028;20.466;2023-04-19T04:18:00;22.92;;;10.60;;
66179;SDS011;52986;44.028;20.466;2023-04-19T04:20:26;18.88;;;8.57;;
66179;SDS011;52986;44.028;20.466;2023-04-19T04:22:51;19.38;;;8.82;;
66179;SDS011;52986;44.028;20.466;2023-04-19T04:25:17;23.20;;;10.00;;
66179;SDS011;52986;44.028;20.466;2023-04-19T04:27:42;22.40;;;9.77;;
66179;SDS011;52986;44.028;20.466;2023-04-19T04:30:11;19.70;;;7.47;;
66179;SDS011;52986;44.028;20.466;2023-04-19T04:32:37;18.42;;;8.10;;
66179;SDS011;52986;44.028;20.466;2023-04-19T04:35:06;19.77;;;8.60;;
66179;SDS011;52986;44.028;20.466;2023-04-19T04:37:33;21.83;;;9.07;;
66179;SDS011;52986;44.028;20.466;2023-04-19T04:40:08;27.50;;;11.25;;
66179;SDS011;52986;44.028;20.466;2023-04-19T04:42:34;27.77;;;12.20;;
66179;SDS011;52986;44.028;20.466;2023-04-19T04:45:01;28.25;;;12.15;;
66179;SDS011;52986;44.028;20.466;2023-04-19T04:47:30;30.50;;;12.95;;
66179;SDS011;52986;44.028;20.466;2023-04-19T04:49:57;28.38;;;12.57;;
66179;SDS011;52986;44.028;20.466;2023-04-19T04:52:23;35.53;;;14.98;;
66179;SDS011;52986;44.028;20.466;2023-04-19T04:54:48;29.85;;;13.70;;
66179;SDS011;52986;44.028;20.466;2023-04-19T04:57:14;22.42;;;10.73;;
66179;SDS011;52986;44.028;20.466;2023-04-19T04:59:39;26.52;;;11.55;;
66179;SDS011;52986;44.028;20.466;2023-04-19T05:02:05;29.67;;;11.90;;
66179;SDS011;52986;44.028;20.466;2023-04-19T05:04:30;26.40;;;11.55;;
66179;SDS011;52986;44.028;20.466;2023-04-19T05:06:56;22.98;;;11.45;;
66179;SDS011;52986;44.028;20.466;2023-04-19T05:09:21;24.92;;;11.73;;
66179;SDS011;52986;44.028;20.466;2023-04-19T05:11:46;25.17;;;10.93;;
66179;SDS011;52986;44.028;20.466;2023-04-19T05:14:12;27.92;;;11.45;;
66179;SDS011;52986;44.028;20.466;2023-04-19T05:16:38;28.03;;;11.93;;
66179;SDS011;52986;44.028;20.466;2023-04-19T05:19:03;24.10;;;11.35;;
66179;SDS011;52986;44.028;20.466;2023-04-19T05:21:29;25.45;;;11.25;;
66179;SDS011;52986;44.028;20.466;2023-04-19T05:23:54;23.85;;;11.32;;
66179;SDS011;52986;44.028;20.466;2023-04-19T05:26:20;23.58;;;11.63;;
66179;SDS011;52986;44.028;20.466;2023-04-19T05:28:45;32.65;;;12.40;;
66179;SDS011;52986;44.028;20.466;2023-04-19T05:31:11;27.48;;;12.52;;
66179;SDS011;52986;44.028;20.466;2023-04-19T05:33:36;27.05;;;12.52;;
66179;SDS011;52986;44.028;20.466;2023-04-19T05:36:02;33.55;;;14.70;;
66179;SDS011;52986;44.028;20.466;2023-04-19T05:38:28;29.50;;;14.63;;
66179;SDS011;52986;44.028;20.466;2023-04-19T05:40:53;34.38;;;16.40;;
66179;SDS011;52986;44.028;20.466;2023-04-19T05:43:18;34.42;;;16.55;;
66179;SDS011;52986;44.028;20.466;2023-04-19T05:45:45;33.65;;;16.30;;
66179;SDS011;52986;44.028;20.466;2023-04-19T05:48:11;39.53;;;17.08;;
66179;SDS011;52986;44.028;20.466;2023-04-19T05:50:36;35.25;;;17.73;;
66179;SDS011;52986;44.028;20.466;2023-04-19T05:53:02;42.95;;;19.13;;
66179;SDS011;52986;44.028;20.466;2023-04-19T05:55:27;41.05;;;18.52;;
66179;SDS011;52986;44.028;20.466;2023-04-19T05:57:53;40.47;;;18.80;;
66179;SDS011;52986;44.028;20.466;2023-04-19T06:00:18;40.92;;;20.02;;
66179;SDS011;52986;44.028;20.466;2023-04-19T06:02:44;41.00;;;19.08;;
66179;SDS011;52986;44.028;20.466;2023-04-19T06:05:09;42.42;;;19.77;;
66179;SDS011;52986;44.028;20.466;2023-04-19T06:07:35;46.05;;;20.58;;
66179;SDS011;52986;44.028;20.466;2023-04-19T06:10:00;42.78;;;19.83;;
66179;SDS011;52986;44.028;20.466;2023-04-19T06:12:25;46.15;;;20.85;;
66179;SDS011;52986;44.028;20.466;2023-04-19T06:14:51;43.47;;;21.05;;
66179;SDS011;52986;44.028;20.466;2023-04-19T06:17:16;50.13;;;23.30;;
66179;SDS011;52986;44.028;20.466;2023-04-19T06:19:47;52.53;;;24.83;;
66179;SDS011;52986;44.028;20.466;2023-04-19T06:22:12;49.70;;;23.42;;
66179;SDS011;52986;44.028;20.466;2023-04-19T06:24:38;49.30;;;24.10;;
66179;SDS011;52986;44.028;20.466;2023-04-19T06:27:03;46.30;;;22.67;;
66179;SDS011;52986;44.028;20.466;2023-04-19T06:29:29;46.35;;;22.30;;
66179;SDS011;52986;44.028;20.466;2023-04-19T06:31:54;42.22;;;21.70;;
66179;SDS011;52986;44.028;20.466;2023-04-19T06:34:20;43.30;;;22.95;;
66179;SDS011;52986;44.028;20.466;2023-04-19T06:36:45;47.72;;;23.75;;
66179;SDS011;52986;44.028;20.466;2023-04-19T06:39:11;40.60;;;21.52;;
66179;SDS011;52986;44.028;20.466;2023-04-19T06:41:36;36.35;;;17.73;;
66179;SDS011;52986;44.028;20.466;2023-04-19T06:44:01;36.70;;;18.67;;
66179;SDS011;52986;44.028;20.466;2023-04-19T06:46:27;34.38;;;18.70;;
66179;SDS011;52986;44.028;20.466;2023-04-19T06:48:52;37.88;;;18.50;;
66179;SDS011;52986;44.028;20.466;2023-04-19T06:51:18;32.55;;;17.25;;
66179;SDS011;52986;44.028;20.466;2023-04-19T06:53:43;45.72;;;24.52;;
66179;SDS011;52986;44.028;20.466;2023-04-19T06:56:09;49.92;;;25.35;;
66179;SDS011;52986;44.028;20.466;2023-04-19T06:58:35;42.67;;;20.50;;
66179;SDS011;52986;44.028;20.466;2023-04-19T07:01:00;40.88;;;21.13;;
66179;SDS011;52986;44.028;20.466;2023-04-19T07:03:28;43.53;;;22.55;;
66179;SDS011;52986;44.028;20.466;2023-04-19T07:05:53;39.15;;;20.92;;
66179;SDS011;52986;44.028;20.466;2023-04-19T07:08:20;40.40;;;20.88;;
66179;SDS011;52986;44.028;20.466;2023-04-19T07:10:46;39.78;;;20.67;;
66179;SDS011;52986;44.028;20.466;2023-04-19T07:13:12;34.70;;;17.95;;
66179;SDS011;52986;44.028;20.466;2023-04-19T07:15:37;33.03;;;16.45;;
66179;SDS011;52986;44.028;20.466;2023-04-19T07:18:03;27.58;;;14.65;;
66179;SDS011;52986;44.028;20.466;2023-04-19T07:20:28;25.92;;;11.63;;
66179;SDS011;52986;44.028;20.466;2023-04-19T07:22:56;27.73;;;14.93;;
66179;SDS011;52986;44.028;20.466;2023-04-19T07:25:22;24.45;;;13.20;;
66179;SDS011;52986;44.028;20.466;2023-04-19T07:27:47;25.90;;;13.20;;
66179;SDS011;52986;44.028;20.466;2023-04-19T07:30:13;26.65;;;14.02;;
66179;SDS011;52986;44.028;20.466;2023-04-19T07:32:38;27.08;;;14.07;;
66179;SDS011;52986;44.028;20.466;2023-04-19T07:35:04;26.35;;;13.93;;
66179;SDS011;52986;44.028;20.466;2023-04-19T07:37:29;26.83;;;13.30;;
66179;SDS011;52986;44.028;20.466;2023-04-19T07:39:55;26.58;;;13.85;;
66179;SDS011;52986;44.028;20.466;2023-04-19T07:42:20;25.80;;;13.70;;
66179;SDS011;52986;44.028;20.466;2023-04-19T07:44:46;25.67;;;13.35;;
66179;SDS011;52986;44.028;20.466;2023-04-19T07:47:11;25.73;;;14.73;;
66179;SDS011;52986;44.028;20.466;2023-04-19T07:49:36;25.87;;;14.20;;
66179;SDS011;52986;44.028;20.466;2023-04-19T07:52:05;33.67;;;15.68;;
66179;SDS011;52986;44.028;20.466;2023-04-19T07:54:31;28.15;;;16.60;;
66179;SDS011;52986;44.028;20.466;2023-04-19T07:56:57;25.45;;;13.85;;
66179;SDS011;52986;44.028;20.466;2023-04-19T07:59:23;21.73;;;10.77;;
66179;SDS011;52986;44.028;20.466;2023-04-19T08:01:48;17.58;;;8.50;;
66179;SDS011;52986;44.028;20.466;2023-04-19T08:04:14;18.00;;;8.70;;
66179;SDS011;52986;44.028;20.466;2023-04-19T08:06:42;17.65;;;8.82;;
66179;SDS011;52986;44.028;20.466;2023-04-19T08:09:07;19.40;;;8.80;;
66179;SDS011;52986;44.028;20.466;2023-04-19T08:11:32;17.65;;;8.52;;
66179;SDS011;52986;44.028;20.466;2023-04-19T08:13:58;16.88;;;9.00;;
66179;SDS011;52986;44.028;20.466;2023-04-19T08:16:23;16.83;;;8.30;;
66179;SDS011;52986;44.028;20.466;2023-04-19T08:18:48;16.88;;;8.50;;
66179;SDS011;52986;44.028;20.466;2023-04-19T08:21:16;16.45;;;8.88;;
66179;SDS011;52986;44.028;20.466;2023-04-19T08:23:42;15.77;;;8.68;;
66179;SDS011;52986;44.028;20.466;2023-04-19T08:26:07;17.25;;;9.32;;
66179;SDS011;52986;44.028;20.466;2023-04-19T08:28:32;17.20;;;9.98;;
66179;SDS011;52986;44.028;20.466;2023-04-19T08:30:58;20.15;;;10.57;;
66179;SDS011;52986;44.028;20.466;2023-04-19T08:33:23;18.50;;;9.93;;
66179;SDS011;52986;44.028;20.466;2023-04-19T08:35:49;17.35;;;9.60;;
66179;SDS011;52986;44.028;20.466;2023-04-19T08:38:14;15.48;;;8.57;;
66179;SDS011;52986;44.028;20.466;2023-04-19T08:40:42;14.48;;;8.30;;
66179;SDS011;52986;44.028;20.466;2023-04-19T08:43:11;15.50;;;8.10;;
66179;SDS011;52986;44.028;20.466;2023-04-19T08:45:36;13.75;;;7.63;;
66179;SDS011;52986;44.028;20.466;2023-04-19T08:48:02;14.68;;;8.45;;
66179;SDS011;52986;44.028;20.466;2023-04-19T08:50:29;16.60;;;7.95;;
66179;SDS011;52986;44.028;20.466;2023-04-19T08:52:56;14.20;;;8.10;;
66179;SDS011;52986;44.028;20.466;2023-04-19T08:55:23;18.15;;;8.70;;
66179;SDS011;52986;44.028;20.466;2023-04-19T08:57:49;14.45;;;7.82;;
66179;SDS011;52986;44.028;20.466;2023-04-19T09:00:14;17.70;;;9.80;;
66179;SDS011;52986;44.028;20.466;2023-04-19T09:02:50;14.77;;;8.07;;
66179;SDS011;52986;44.028;20.466;2023-04-19T09:05:18;13.38;;;7.18;;
66179;SDS011;52986;44.028;20.466;2023-04-19T09:07:44;12.93;;;7.57;;
66179;SDS011;52986;44.028;20.466;2023-04-19T09:10:15;19.40;;;8.35;;
66179;SDS011;52986;44.028;20.466;2023-04-19T09:12:42;16.10;;;7.90;;
66179;SDS011;52986;44.028;20.466;2023-04-19T09:15:08;15.77;;;8.23;;
66179;SDS011;52986;44.028;20.466;2023-04-19T09:17:35;15.18;;;7.95;;
66179;SDS011;52986;44.028;20.466;2023-04-19T09:20:01;14.93;;;7.55;;
66179;SDS011;52986;44.028;20.466;2023-04-19T09:22:28;14.30;;;7.40;;
66179;SDS011;52986;44.028;20.466;2023-04-19T09:24:54;13.88;;;7.90;;
66179;SDS011;52986;44.028;20.466;2023-04-19T09:30:00;13.65;;;6.63;;
66179;SDS011;52986;44.028;20.466;2023-04-19T09:32:26;17.92;;;7.07;;
66179;SDS011;52986;44.028;20.466;2023-04-19T09:34:53;14.93;;;7.70;;
66179;SDS011;52986;44.028;20.466;2023-04-19T09:37:21;22.73;;;6.68;;
66179;SDS011;52986;44.028;20.466;2023-04-19T09:39:46;16.20;;;7.38;;
66179;SDS011;52986;44.028;20.466;2023-04-19T09:42:12;12.93;;;6.20;;
66179;SDS011;52986;44.028;20.466;2023-04-19T09:44:37;15.30;;;6.75;;
66179;SDS011;52986;44.028;20.466;2023-04-19T09:47:19;18.50;;;7.15;;
66179;SDS011;52986;44.028;20.466;2023-04-19T09:50:09;21.33;;;8.60;;
66179;SDS011;52986;44.028;20.466;2023-04-19T09:52:35;19.50;;;8.23;;
66179;SDS011;52986;44.028;20.466;2023-04-19T09:55:02;20.02;;;7.95;;
66179;SDS011;52986;44.028;20.466;2023-04-19T09:57:29;13.60;;;6.57;;
66179;SDS011;52986;44.028;20.466;2023-04-19T09:59:57;13.00;;;6.25;;
66179;SDS011;52986;44.028;20.466;2023-04-19T10:02:23;11.80;;;5.90;;
66179;SDS011;52986;44.028;20.466;2023-04-19T10:04:50;14.90;;;7.03;;
66179;SDS011;52986;44.028;20.466;2023-04-19T10:07:17;16.85;;;7.50;;
66179;SDS011;52986;44.028;20.466;2023-04-19T10:09:42;14.13;;;6.72;;
66179;SDS011;52986;44.028;20.466;2023-04-19T10:12:10;13.65;;;6.72;;
66179;SDS011;52986;44.028;20.466;2023-04-19T10:14:36;13.57;;;6.82;;
66179;SDS011;52986;44.028;20.466;2023-04-19T10:17:03;13.23;;;7.07;;
66179;SDS011;52986;44.028;20.466;2023-04-19T10:19:29;13.90;;;6.40;;
66179;SDS011;52986;44.028;20.466;2023-04-19T10:21:56;16.33;;;7.13;;
66179;SDS011;52986;44.028;20.466;2023-04-19T10:24:22;13.40;;;6.57;;
66179;SDS011;52986;44.028;20.466;2023-04-19T10:27:07;11.32;;;6.20;;
66179;SDS011;52986;44.028;20.466;2023-04-19T10:32:40;12.05;;;6.47;;
66179;SDS011;52986;44.028;20.466;2023-04-19T10:35:07;12.88;;;6.35;;
66179;SDS011;52986;44.028;20.466;2023-04-19T10:38:00;13.32;;;5.93;;
66179;SDS011;52986;44.028;20.466;2023-04-19T10:43:28;14.45;;;6.70;;
66179;SDS011;52986;44.028;20.466;2023-04-19T10:45:57;11.95;;;5.63;;
66179;SDS011;52986;44.028;20.466;2023-04-19T10:48:50;9.65;;;4.60;;
66179;SDS011;52986;44.028;20.466;2023-04-19T10:51:46;10.18;;;4.60;;
66179;SDS011;52986;44.028;20.466;2023-04-19T10:59:24;11.38;;;4.45;;
66179;SDS011;52986;44.028;20.466;2023-04-19T11:01:54;10.85;;;4.80;;
66179;SDS011;52986;44.028;20.466;2023-04-19T11:04:22;9.88;;;4.13;;
66179;SDS011;52986;44.028;20.466;2023-04-19T11:12:09;10.10;;;3.60;;
66179;SDS011;52986;44.028;20.466;2023-04-19T11:14:45;11.27;;;3.90;;
66179;SDS011;52986;44.028;20.466;2023-04-19T11:19:52;7.10;;;3.40;;
66179;SDS011;52986;44.028;20.466;2023-04-19T11:22:33;11.38;;;3.72;;
66179;SDS011;52986;44.028;20.466;2023-04-19T11:27:45;16.10;;;3.60;;
66179;SDS011;52986;44.028;20.466;2023-04-19T11:30:19;13.73;;;3.75;;
66179;SDS011;52986;44.028;20.466;2023-04-19T11:32:52;21.67;;;4.57;;
66179;SDS011;52986;44.028;20.466;2023-04-19T11:35:20;14.18;;;4.45;;
66179;SDS011;52986;44.028;20.466;2023-04-19T11:37:46;17.77;;;4.72;;
66179;SDS011;52986;44.028;20.466;2023-04-19T11:40:15;18.98;;;3.90;;
66179;SDS011;52986;44.028;20.466;2023-04-19T11:42:42;9.70;;;3.15;;
66179;SDS011;52986;44.028;20.466;2023-04-19T11:45:09;17.08;;;3.47;;
66179;SDS011;52986;44.028;20.466;2023-04-19T11:47:35;12.88;;;4.05;;
66179;SDS011;52986;44.028;20.466;2023-04-19T11:50:57;10.48;;;4.05;;
66179;SDS011;52986;44.028;20.466;2023-04-19T11:52:59;10.30;;;3.95;;
66179;SDS011;52986;44.028;20.466;2023-04-19T11:55:33;15.35;;;4.38;;
66179;SDS011;52986;44.028;20.466;2023-04-19T11:57:59;14.48;;;3.88;;
66179;SDS011;52986;44.028;20.466;2023-04-19T12:00:28;10.95;;;3.53;;
66179;SDS011;52986;44.028;20.466;2023-04-19T12:02:54;12.80;;;3.92;;
66179;SDS011;52986;44.028;20.466;2023-04-19T12:05:20;12.00;;;3.90;;
66179;SDS011;52986;44.028;20.466;2023-04-19T12:12:48;10.20;;;3.90;;
66179;SDS011;52986;44.028;20.466;2023-04-19T12:15:14;15.02;;;4.22;;
66179;SDS011;52986;44.028;20.466;2023-04-19T12:17:58;15.02;;;4.00;;
66179;SDS011;52986;44.028;20.466;2023-04-19T12:22:58;10.13;;;3.83;;
66179;SDS011;52986;44.028;20.466;2023-04-19T12:25:27;14.63;;;4.38;;
66179;SDS011;52986;44.028;20.466;2023-04-19T12:27:57;11.25;;;3.47;;
66179;SDS011;52986;44.028;20.466;2023-04-19T12:30:23;12.77;;;3.70;;
66179;SDS011;52986;44.028;20.466;2023-04-19T12:32:50;15.05;;;5.22;;
66179;SDS011;52986;44.028;20.466;2023-04-19T12:35:19;9.50;;;3.30;;
66179;SDS011;52986;44.028;20.466;2023-04-19T12:37:49;11.25;;;3.38;;
66179;SDS011;52986;44.028;20.466;2023-04-19T12:40:16;10.25;;;4.20;;
66179;SDS011;52986;44.028;20.466;2023-04-19T12:42:41;13.55;;;4.18;;
66179;SDS011;52986;44.028;20.466;2023-04-19T12:45:07;10.68;;;3.42;;
66179;SDS011;52986;44.028;20.466;2023-04-19T12:47:33;9.95;;;3.75;;
66179;SDS011;52986;44.028;20.466;2023-04-19T12:49:58;10.83;;;4.43;;
66179;SDS011;52986;44.028;20.466;2023-04-19T12:52:24;15.35;;;4.07;;
66179;SDS011;52986;44.028;20.466;2023-04-19T12:54:49;10.60;;;3.95;;
66179;SDS011;52986;44.028;20.466;2023-04-19T12:57:14;15.38;;;4.45;;
66179;SDS011;52986;44.028;20.466;2023-04-19T12:59:40;12.48;;;4.10;;
66179;SDS011;52986;44.028;20.466;2023-04-19T13:02:05;10.98;;;3.38;;
66179;SDS011;52986;44.028;20.466;2023-04-19T13:04:31;9.38;;;3.78;;
66179;SDS011;52986;44.028;20.466;2023-04-19T13:06:57;13.23;;;3.90;;
66179;SDS011;52986;44.028;20.466;2023-04-19T13:09:22;12.30;;;3.70;;
66179;SDS011;52986;44.028;20.466;2023-04-19T13:11:47;12.93;;;4.03;;
66179;SDS011;52986;44.028;20.466;2023-04-19T13:14:13;9.20;;;3.53;;
66179;SDS011;52986;44.028;20.466;2023-04-19T13:16:38;13.43;;;3.83;;
66179;SDS011;52986;44.028;20.466;2023-04-19T13:19:04;10.73;;;3.90;;
66179;SDS011;52986;44.028;20.466;2023-04-19T13:21:29;11.57;;;4.50;;
66179;SDS011;52986;44.028;20.466;2023-04-19T13:23:57;12.60;;;4.20;;
66179;SDS011;52986;44.028;20.466;2023-04-19T13:26:23;11.00;;;4.03;;
66179;SDS011;52986;44.028;20.466;2023-04-19T13:28:48;11.68;;;4.50;;
66179;SDS011;52986;44.028;20.466;2023-04-19T13:31:13;12.43;;;3.72;;
66179;SDS011;52986;44.028;20.466;2023-04-19T13:33:39;8.38;;;3.28;;
66179;SDS011;52986;44.028;20.466;2023-04-19T13:36:04;8.07;;;3.20;;
66179;SDS011;52986;44.028;20.466;2023-04-19T13:38:30;12.05;;;3.70;;
66179;SDS011;52986;44.028;20.466;2023-04-19T13:40:59;9.05;;;3.80;;
66179;SDS011;52986;44.028;20.466;2023-04-19T13:43:27;10.95;;;3.78;;
66179;SDS011;52986;44.028;20.466;2023-04-19T13:45:53;12.93;;;4.07;;
66179;SDS011;52986;44.028;20.466;2023-04-19T13:48:18;10.10;;;4.15;;
66179;SDS011;52986;44.028;20.466;2023-04-19T13:50:43;9.02;;;3.75;;
66179;SDS011;52986;44.028;20.466;2023-04-19T13:53:09;10.32;;;4.00;;
66179;SDS011;52986;44.028;20.466;2023-04-19T13:55:34;9.27;;;3.50;;
66179;SDS011;52986;44.028;20.466;2023-04-19T13:58:00;10.85;;;3.88;;
66179;SDS011;52986;44.028;20.466;2023-04-19T14:00:26;10.88;;;3.72;;
66179;SDS011;52986;44.028;20.466;2023-04-19T14:02:51;12.15;;;3.95;;
66179;SDS011;52986;44.028;20.466;2023-04-19T14:05:18;11.38;;;4.22;;
66179;SDS011;52986;44.028;20.466;2023-04-19T14:07:44;16.75;;;4.38;;
66179;SDS011;52986;44.028;20.466;2023-04-19T14:10:09;16.33;;;5.53;;
66179;SDS011;52986;44.028;20.466;2023-04-19T14:12:35;9.10;;;3.53;;
66179;SDS011;52986;44.028;20.466;2023-04-19T14:15:00;11.05;;;3.67;;
66179;SDS011;52986;44.028;20.466;2023-04-19T14:17:26;12.77;;;4.10;;
66179;SDS011;52986;44.028;20.466;2023-04-19T14:19:51;16.15;;;4.97;;
66179;SDS011;52986;44.028;20.466;2023-04-19T14:22:17;12.38;;;4.40;;
66179;SDS011;52986;44.028;20.466;2023-04-19T14:24:45;12.00;;;4.25;;
66179;SDS011;52986;44.028;20.466;2023-04-19T14:27:13;11.75;;;4.75;;
66179;SDS011;52986;44.028;20.466;2023-04-19T14:29:39;12.82;;;4.38;;
66179;SDS011;52986;44.028;20.466;2023-04-19T14:32:04;17.83;;;5.20;;
66179;SDS011;52986;44.028;20.466;2023-04-19T14:34:30;10.32;;;4.15;;
66179;SDS011;52986;44.028;20.466;2023-04-19T14:36:56;13.85;;;4.30;;
66179;SDS011;52986;44.028;20.466;2023-04-19T14:39:21;19.83;;;5.70;;
66179;SDS011;52986;44.028;20.466;2023-04-19T14:41:47;11.27;;;4.50;;
66179;SDS011;52986;44.028;20.466;2023-04-19T14:44:12;12.52;;;3.70;;
66179;SDS011;52986;44.028;20.466;2023-04-19T14:46:38;16.20;;;6.10;;